Pagina principale
METAR-TAF:

METAR-TAF

Aeroporti :

Aeroporto di Sármellék

Hévíz, Ungheria

latitudine: 46-41-11N, longitudine: 017-09-33E, altezza: 124 m

Osservazione

Il bollettino è stato emesso 33 minuti fa, alle 00:45 UTC
Vento 6 kt da est, variando fra nord-est e est/sud-est
Temperature 14°C
Umidità 72%
Pressione 1003 hPa
Visibilità 10 km o più
nessuna nube inferiore a 1500 m e nessun cumulonembo

METAR: LHSM 160045Z AUTO 09006KT 050V120 CAVOK 14/09 Q1003

Ora: 03:18 (01:18 UTC)

Previsione

Il bollettino è stato emesso 14 ore e 3 minuti fa, alle 11:15 UTC
Previsione valida dal 15 alle 12 UTC al 15 alle 21 UTC
Vento 12 kt da sud-ovest
Visibilità 10 km o più
nessuna nube inferiore a 1500 m e nessun cumulonembo
Evoluzione graduale
dal 15 alle 16 UTC al 15 alle 19 UTC
Vento 6 kt da est/nord-est

TAF: LHSM 151115Z 1512/1521 23012KT CAVOK BECMG 1516/1519 06006KT

Osservazioni e previsioni meteorologiche di più di 4000 aeroporti (messaggi METAR e TAF).

Le stazioni disponibili sono rappresentate dai dischi gialli e rossi sulla carta.

Puntare il mouse per vedere il nome della stazione.

Clicca sopra per visualizzare le osservazioni e previsioni meteorologiche.

Per cambiare la mappa : fare clic sui pulsanti verdi con una croce nera per ingrandire, il pulsante verde con un trattino per diminuire, o sulla freccia verde per le mappe adiacenti.


METAR-TAF: